Time;durP1;ratioP1;P1;durP2;ratioP2;P2;SDS_P1;SDS_P2;PMS_P1;PMS_P2;Temp;Humidity;BMP_temperature;BMP_pressure;BME280_temperature;BME280_humidity;BME280_pressure;Samples;Min_cycle;Max_cycle;Signal;HPM_P1;HPM_P2
2023/06/07 00:00:59;;;;;;;;;;;;;;;17.84;59.83;98377.97;7385977;19;19942;-78
2023/06/07 00:03:26;;;;;;;;;;;;;;;17.80;59.67;98374.88;7384978;19;20306;-78
2023/06/07 00:05:53;;;;;;;;;;;;;;;17.78;59.68;98379.56;7390734;19;19937;-78
2023/06/07 00:11:33;;;;;;;;;;;;;;;17.79;61.12;98375.91;7335859;19;19922;-77
2023/06/07 00:13:59;;;;;;;;;;;;;;;17.74;61.31;98372.97;7376286;19;19919;-78
2023/06/07 00:16:26;;;;;;;;;;;;;;;17.66;61.27;98365.13;7383311;19;19923;-77
2023/06/07 00:18:53;;;;;;;;;;;;;;;17.65;61.86;98368.84;7380652;19;19927;-77
2023/06/07 00:21:20;;;;;;;;;;;;;;;17.63;60.92;98370.88;7375719;19;19946;-77
2023/06/07 00:23:47;;;;;;;;;;;;;;;17.62;61.68;98369.25;7383915;19;19937;-77
2023/06/07 00:26:13;;;;;;;;;;;;;;;17.57;61.89;98367.16;7381813;19;19918;-77
2023/06/07 00:28:41;;;;;;;;;;;;;;;17.59;62.13;98364.28;7383043;19;19919;-77
2023/06/07 00:31:08;;;;;;;;;;;;;;;17.58;61.17;98365.31;7381039;19;20329;-77
2023/06/07 00:33:35;;;;;;;;;;;;;;;17.55;61.72;98364.69;7385016;19;19982;-77
2023/06/07 00:36:02;;;;;;;;;;;;;;;17.47;61.18;98356.84;7377268;19;19986;-77
2023/06/07 00:38:29;;;;;;;;;;;;;;;17.45;62.92;98361.56;7375686;19;20021;-77
2023/06/07 00:40:55;;;;;;;;;;;;;;;17.47;62.66;98358.69;7380238;19;19918;-77
2023/06/07 00:43:24;;;;;;;;;;;;;;;17.42;62.77;98367.31;7384415;19;19928;-77
2023/06/07 00:45:51;;;;;;;;;;;;;;;17.41;62.81;98363.00;7383364;19;19922;-77
2023/06/07 00:48:17;;;;;;;;;;;;;;;17.35;62.88;98361.09;7380595;19;19919;-78
2023/06/07 00:50:45;;;;;;;;;;;;;;;17.32;62.68;98359.69;7377554;19;19951;-77
2023/06/07 00:53:12;;;;;;;;;;;;;;;17.32;63.10;98359.69;7374430;19;19915;-77
2023/06/07 00:55:39;;;;;;;;;;;;;;;17.25;62.96;98366.84;7379910;19;20018;-78
2023/06/07 00:58:07;;;;;;;;;;;;;;;17.12;62.48;98372.13;7375008;19;19926;-77
2023/06/07 01:00:37;;;;;;;;;;;;;;;17.10;63.59;98372.31;7383652;19;20265;-77
2023/06/07 01:03:04;;;;;;;;;;;;;;;17.14;63.94;98367.41;7377551;19;20044;-78
2023/06/07 01:05:31;;;;;;;;;;;;;;;17.09;62.76;98373.34;7383597;19;19955;-77
2023/06/07 01:07:58;;;;;;;;;;;;;;;17.00;63.24;98371.84;7378023;19;19921;-78
2023/06/07 01:10:25;;;;;;;;;;;;;;;16.96;63.86;98369.78;7378213;19;20296;-77
2023/06/07 01:12:54;;;;;;;;;;;;;;;16.96;64.24;98372.44;7381554;19;20252;-77
2023/06/07 01:15:21;;;;;;;;;;;;;;;16.95;64.22;98366.25;7380593;19;19929;-78
2023/06/07 01:17:48;;;;;;;;;;;;;;;16.92;64.12;98369.31;7378654;19;19943;-77
2023/06/07 01:20:20;;;;;;;;;;;;;;;16.92;64.27;98369.31;7373747;19;19922;-77
2023/06/07 01:22:46;;;;;;;;;;;;;;;16.93;64.53;98370.13;7382092;19;19982;-77
2023/06/07 01:25:13;;;;;;;;;;;;;;;16.88;64.29;98368.09;7375035;19;19919;-77
2023/06/07 01:27:43;;;;;;;;;;;;;;;16.79;63.67;98370.06;7381027;19;19925;-77
2023/06/07 01:30:12;;;;;;;;;;;;;;;16.76;64.33;98364.25;7378944;19;19949;-77
2023/06/07 01:32:40;;;;;;;;;;;;;;;16.75;64.67;98367.97;7384555;19;20309;-77
2023/06/07 01:35:07;;;;;;;;;;;;;;;16.69;64.75;98361.53;7373733;19;19939;-77
2023/06/07 01:37:34;;;;;;;;;;;;;;;16.69;64.17;98361.53;7380630;19;20018;-77
2023/06/07 01:40:01;;;;;;;;;;;;;;;16.68;64.19;98363.38;7378268;19;19923;-77
2023/06/07 01:42:30;;;;;;;;;;;;;;;16.67;64.50;98359.06;7375535;19;19939;-77
2023/06/07 01:44:56;;;;;;;;;;;;;;;16.65;65.02;98361.09;7376258;19;20596;-78
2023/06/07 01:47:23;;;;;;;;;;;;;;;16.57;64.91;98357.78;7380060;19;19968;-78
2023/06/07 01:49:51;;;;;;;;;;;;;;;16.38;64.96;98351.25;7383538;19;19925;-78
2023/06/07 01:52:18;;;;;;;;;;;;;;;16.43;65.56;98356.84;7379900;19;19922;-77
2023/06/07 01:54:45;;;;;;;;;;;;;;;16.40;64.64;98359.88;7378855;19;19926;-78
2023/06/07 01:57:30;;;;;;;;;;;;;;;16.38;64.93;98365.44;7374018;19;19919;-78
2023/06/07 01:59:57;;;;;;;;;;;;;;;16.35;65.40;98346.28;7375216;19;19927;-77
2023/06/07 02:02:37;;;;;;;;;;;;;;;16.31;65.36;98355.72;7380027;19;19957;-77
2023/06/07 02:05:04;;;;;;;;;;;;;;;16.28;65.28;98353.44;7376182;19;19914;-77
2023/06/07 02:07:41;;;;;;;;;;;;;;;16.29;65.64;98345.22;7375623;19;19929;-77
2023/06/07 02:10:07;;;;;;;;;;;;;;;16.31;65.76;98351.19;7374186;19;19929;-77
2023/06/07 02:12:34;;;;;;;;;;;;;;;16.34;66.18;98350.81;7374104;19;19914;-77
2023/06/07 02:15:01;;;;;;;;;;;;;;;16.39;65.97;98353.72;7375830;19;19922;-78
2023/06/07 02:17:28;;;;;;;;;;;;;;;16.40;65.54;98349.19;7376322;19;19986;-77
2023/06/07 02:19:56;;;;;;;;;;;;;;;16.40;65.53;98344.72;7380530;19;19950;-77
2023/06/07 02:22:22;;;;;;;;;;;;;;;16.39;65.45;98347.56;7375978;19;19915;-77
2023/06/07 02:24:50;;;;;;;;;;;;;;;16.35;65.21;98341.78;7378661;19;19926;-77
2023/06/07 02:27:16;;;;;;;;;;;;;;;16.40;65.92;98350.06;7378144;19;20340;-78
2023/06/07 02:29:44;;;;;;;;;;;;;;;16.34;65.08;98344.66;7379793;19;19922;-77
2023/06/07 02:32:11;;;;;;;;;;;;;;;16.29;64.75;98339.88;7375042;19;19986;-78
2023/06/07 02:34:39;;;;;;;;;;;;;;;16.26;65.34;98353.63;7371467;19;19915;-77
2023/06/07 02:37:06;;;;;;;;;;;;;;;16.25;64.85;98349.31;7379576;19;19923;-78
2023/06/07 02:39:32;;;;;;;;;;;;;;;16.23;65.47;98357.50;7378722;19;19925;-78
2023/06/07 02:41:59;;;;;;;;;;;;;;;16.17;65.62;98352.13;7379465;19;19929;-77
2023/06/07 02:44:26;;;;;;;;;;;;;;;16.03;65.87;98356.47;7377515;19;20846;-78
2023/06/07 02:46:52;;;;;;;;;;;;;;;15.95;66.41;98356.63;7382018;19;20025;-77
2023/06/07 02:49:19;;;;;;;;;;;;;;;15.95;67.01;98348.59;7372305;19;19943;-78
2023/06/07 02:51:46;;;;;;;;;;;;;;;16.01;66.62;98356.69;7372387;19;19925;-77
2023/06/07 02:54:16;;;;;;;;;;;;;;;15.94;66.67;98360.31;7372921;19;19923;-78
2023/06/07 02:56:43;;;;;;;;;;;;;;;15.92;66.32;98362.34;7378613;19;19923;-77
2023/06/07 02:59:10;;;;;;;;;;;;;;;15.83;66.19;98364.31;7376355;19;19940;-77
2023/06/07 03:01:40;;;;;;;;;;;;;;;15.85;66.25;98353.44;7377896;19;20606;-77
2023/06/07 03:04:07;;;;;;;;;;;;;;;15.85;66.11;98359.63;7375379;19;20402;-78
2023/06/07 03:06:35;;;;;;;;;;;;;;;15.87;66.54;98364.75;7374053;19;19914;-77
2023/06/07 03:09:13;;;;;;;;;;;;;;;15.87;66.88;98362.91;7374764;19;19960;-76
2023/06/07 03:11:40;;;;;;;;;;;;;;;15.83;66.24;98358.16;7371269;19;19915;-78
2023/06/07 03:14:07;;;;;;;;;;;;;;;15.81;66.38;98361.00;7372257;19;19926;-77
2023/06/07 03:16:39;;;;;;;;;;;;;;;15.77;66.70;98355.22;7377068;19;19919;-77
2023/06/07 03:19:06;;;;;;;;;;;;;;;15.75;66.20;98349.25;7374364;19;19927;-77
2023/06/07 03:21:33;;;;;;;;;;;;;;;15.71;66.60;98363.97;7373243;19;22368;-77
2023/06/07 03:24:04;;;;;;;;;;;;;;;15.73;67.32;98359.28;7368461;19;19957;-77
2023/06/07 03:26:32;;;;;;;;;;;;;;;15.72;67.12;98357.63;7372129;19;19918;-77
2023/06/07 03:29:00;;;;;;;;;;;;;;;15.74;67.42;98366.25;7375870;19;19919;-77
2023/06/07 03:31:31;;;;;;;;;;;;;;;15.69;67.47;98368.69;7371756;19;19914;-77
2023/06/07 03:34:03;;;;;;;;;;;;;;;15.70;67.85;98366.84;7369573;19;19996;-77
2023/06/07 03:36:30;;;;;;;;;;;;;;;15.64;67.47;98370.22;7373293;19;21203;-77
2023/06/07 03:38:58;;;;;;;;;;;;;;;15.65;67.76;98367.38;7371245;19;19938;-78
2023/06/07 03:41:25;;;;;;;;;;;;;;;15.64;67.60;98367.53;7363438;19;20228;-78
2023/06/07 03:43:55;;;;;;;;;;;;;;;15.63;66.94;98365.91;7376899;19;19927;-77
2023/06/07 03:46:22;;;;;;;;;;;;;;;15.64;67.12;98372.88;7371475;19;20681;-78
2023/06/07 03:48:50;;;;;;;;;;;;;;;15.59;67.52;98370.78;7372510;19;19923;-77
2023/06/07 03:51:20;;;;;;;;;;;;;;;15.52;67.27;98375.22;7364717;19;19922;-77
2023/06/07 03:53:48;;;;;;;;;;;;;;;15.49;67.82;98376.41;7375620;19;19994;-77
2023/06/07 03:56:15;;;;;;;;;;;;;;;15.47;67.70;98370.44;7366833;19;19914;-77
2023/06/07 03:58:41;;;;;;;;;;;;;;;15.37;67.41;98370.72;7371737;19;19923;-78
2023/06/07 04:01:13;;;;;;;;;;;;;;;15.29;67.80;98370.81;7370612;19;19911;-77
2023/06/07 04:03:39;;;;;;;;;;;;;;;15.33;68.37;98377.44;7374743;19;19926;-77
2023/06/07 04:06:08;;;;;;;;;;;;;;;15.34;68.36;98370.28;7370413;19;19915;-77
2023/06/07 04:08:37;;;;;;;;;;;;;;;15.33;68.14;98372.13;7373154;19;20448;-77
2023/06/07 04:11:03;;;;;;;;;;;;;;;15.31;68.48;98370.66;7368997;19;20010;-78
2023/06/07 04:13:30;;;;;;;;;;;;;;;15.33;68.40;98379.28;7371440;19;19918;-77
2023/06/07 04:15:57;;;;;;;;;;;;;;;15.27;68.08;98370.22;7372931;19;19922;-77
2023/06/07 04:18:25;;;;;;;;;;;;;;;15.27;68.50;98378.19;7370861;19;19923;-77
2023/06/07 04:20:52;;;;;;;;;;;;;;;15.37;68.79;98375.22;7372860;19;19954;-77
2023/06/07 04:23:20;;;;;;;;;;;;;;;15.49;68.98;98379.06;7372570;19;19923;-77
2023/06/07 04:25:47;;;;;;;;;;;;;;;15.50;68.64;98374.56;7371677;19;19922;-77
2023/06/07 04:28:15;;;;;;;;;;;;;;;15.61;69.29;98373.25;7367401;19;19920;-78
2023/06/07 04:30:43;;;;;;;;;;;;;;;15.65;69.10;98378.03;7367597;19;19994;-77
2023/06/07 04:33:12;;;;;;;;;;;;;;;15.68;68.86;98377.66;7371534;19;20380;-78
2023/06/07 04:35:43;;;;;;;;;;;;;;;15.72;68.77;98376.31;7374498;19;21256;-78
2023/06/07 04:38:15;;;;;;;;;;;;;;;15.78;68.53;98386.22;7378493;19;19930;-78
2023/06/07 04:40:48;;;;;;;;;;;;;;;15.67;67.59;98373.34;7380863;19;19927;-77
2023/06/07 04:43:23;;;;;;;;;;;;;;;15.59;68.10;98376.94;7379605;19;19926;-77
2023/06/07 04:45:54;;;;;;;;;;;;;;;15.57;67.94;98375.47;7375958;19;20644;-77
2023/06/07 04:48:25;;;;;;;;;;;;;;;15.63;68.51;98372.06;7372262;19;20567;-77
2023/06/07 04:50:56;;;;;;;;;;;;;;;15.57;68.59;98381.63;7378703;19;19974;-77
2023/06/07 04:53:23;;;;;;;;;;;;;;;15.56;68.87;98392.47;7377257;19;20216;-77
2023/06/07 04:55:50;;;;;;;;;;;;;;;15.61;68.87;98390.06;7378992;19;19958;-77
2023/06/07 04:58:18;;;;;;;;;;;;;;;15.66;68.33;98387.66;7377843;19;19919;-78
2023/06/07 05:00:45;;;;;;;;;;;;;;;15.79;68.70;98390.50;7387852;19;19919;-80
2023/06/07 05:03:21;;;;;;;;;;;;;;;15.91;69.26;98390.88;7375272;19;19914;-76
2023/06/07 05:05:51;;;;;;;;;;;;;;;15.95;68.79;98397.44;7374790;19;19926;-76
2023/06/07 05:08:19;;;;;;;;;;;;;;;16.07;68.42;98395.13;7377212;19;19947;-78
2023/06/07 05:10:45;;;;;;;;;;;;;;;16.00;67.45;98391.56;7378351;19;19926;-77
2023/06/07 05:13:12;;;;;;;;;;;;;;;15.88;67.88;98393.91;7379993;19;19929;-77
2023/06/07 05:15:39;;;;;;;;;;;;;;;15.82;68.39;98389.31;7382557;19;19927;-77
2023/06/07 05:18:09;;;;;;;;;;;;;;;15.86;68.51;98389.78;7381166;19;19919;-77
2023/06/07 05:20:36;;;;;;;;;;;;;;;16.06;68.61;98397.97;7374422;19;19932;-79
2023/06/07 05:23:03;;;;;;;;;;;;;;;16.09;67.67;98394.91;7381456;19;19947;-80
2023/06/07 05:25:33;;;;;;;;;;;;;;;16.06;67.79;98396.16;7375191;19;19962;-78
2023/06/07 05:28:01;;;;;;;;;;;;;;;16.11;68.34;98407.06;7384813;19;19915;-78
2023/06/07 05:30:42;;;;;;;;;;;;;;;16.19;68.38;98400.78;7384745;19;19914;-77
2023/06/07 05:33:09;;;;;;;;;;;;;;;16.13;68.16;98398.88;7382518;19;20333;-79
2023/06/07 05:35:36;;;;;;;;;;;;;;;16.12;68.47;98406.06;7382332;19;19923;-79
2023/06/07 05:38:03;;;;;;;;;;;;;;;16.11;68.67;98392.88;7381497;19;19926;-79
2023/06/07 05:40:36;;;;;;;;;;;;;;;16.27;68.34;98399.81;7380679;19;19918;-78
2023/06/07 05:43:04;;;;;;;;;;;;;;;16.37;68.77;98403.81;7380811;19;20428;-78
2023/06/07 05:45:30;;;;;;;;;;;;;;;16.46;67.70;98405.34;7377594;19;20325;-78
2023/06/07 05:47:57;;;;;;;;;;;;;;;16.58;68.73;98399.47;7381989;19;19930;-79
2023/06/07 05:50:24;;;;;;;;;;;;;;;16.54;67.98;98398.22;7375495;19;19925;-78
2023/06/07 05:52:56;;;;;;;;;;;;;;;16.55;68.47;98390.00;7382636;19;19922;-78
2023/06/07 05:55:26;;;;;;;;;;;;;;;16.54;67.96;98399.03;7378652;19;19923;-79
2023/06/07 05:57:53;;;;;;;;;;;;;;;16.54;68.29;98391.03;7386140;19;19922;-79
2023/06/07 06:00:20;;;;;;;;;;;;;;;16.51;68.34;98394.09;7380244;19;19946;-78
2023/06/07 06:02:48;;;;;;;;;;;;;;;16.54;68.47;98383.00;7382137;19;19929;-78
2023/06/07 06:05:17;;;;;;;;;;;;;;;16.59;68.37;98388.59;7382703;19;19923;-78
2023/06/07 06:07:45;;;;;;;;;;;;;;;16.65;68.32;98382.47;7382502;19;19918;-79
2023/06/07 06:10:12;;;;;;;;;;;;;;;16.76;67.99;98385.63;7377472;19;19923;-78
2023/06/07 06:12:39;;;;;;;;;;;;;;;16.75;68.29;98379.47;7378906;19;19918;-78
2023/06/07 06:15:05;;;;;;;;;;;;;;;16.75;68.60;98382.16;7382858;19;19927;-79
2023/06/07 06:17:32;;;;;;;;;;;;;;;16.79;69.52;98382.59;7379810;19;19922;-78
2023/06/07 06:19:59;;;;;;;;;;;;;;;16.99;69.26;98388.91;7384106;19;19930;-80
2023/06/07 06:22:25;;;;;;;;;;;;;;;17.15;68.76;98385.09;7378015;19;19926;-79
2023/06/07 06:24:53;;;;;;;;;;;;;;;17.29;68.77;98385.97;7379641;19;19915;-79
2023/06/07 06:27:20;;;;;;;;;;;;;;;17.40;68.33;98392.59;7374368;19;19992;-78
2023/06/07 06:29:47;;;;;;;;;;;;;;;17.39;66.89;98383.75;7383342;19;19926;-78
2023/06/07 06:32:14;;;;;;;;;;;;;;;17.38;67.13;98384.78;7385156;19;19927;-80
2023/06/07 06:34:41;;;;;;;;;;;;;;;17.26;67.87;98384.53;7383029;19;20355;-79
2023/06/07 06:37:08;;;;;;;;;;;;;;;17.33;68.00;98390.72;7383860;19;19922;-78
2023/06/07 06:39:35;;;;;;;;;;;;;;;17.53;67.83;98377.41;7379206;19;19931;-79
2023/06/07 06:42:01;;;;;;;;;;;;;;;17.59;66.96;98386.53;7373605;19;19918;-80
2023/06/07 06:44:54;;;;;;;;;;;;;;;17.53;66.60;98384.63;7380636;19;19921;-78
2023/06/07 06:47:21;;;;;;;;;;;;;;;17.63;66.80;98387.75;7381769;19;19940;-79
2023/06/07 06:49:48;;;;;;;;;;;;;;;17.68;66.12;98393.34;7380523;19;19918;-79
2023/06/07 06:52:15;;;;;;;;;;;;;;;17.69;66.21;98391.47;7381951;19;19957;-79
2023/06/07 06:54:41;;;;;;;;;;;;;;;17.71;65.69;98386.75;7384844;19;19919;-79
2023/06/07 06:57:08;;;;;;;;;;;;;;;17.75;65.47;98385.34;7391933;19;19926;-79
2023/06/07 06:59:40;;;;;;;;;;;;;;;17.74;66.72;98384.50;7373573;19;19978;-78
2023/06/07 07:02:08;;;;;;;;;;;;;;;17.86;67.42;98390.13;7377474;19;19915;-78
2023/06/07 07:04:35;;;;;;;;;;;;;;;17.87;66.88;98386.41;7375504;19;19946;-78
2023/06/07 07:07:02;;;;;;;;;;;;;;;17.95;66.76;98394.25;7381074;19;19944;-79
2023/06/07 07:09:32;;;;;;;;;;;;;;;18.09;66.56;98392.44;7376979;19;19915;-78
2023/06/07 07:11:58;;;;;;;;;;;;;;;18.09;66.28;98394.28;7380192;19;20265;-79
2023/06/07 07:14:25;;;;;;;;;;;;;;;18.10;67.05;98395.94;7376847;19;19923;-79
2023/06/07 07:16:52;;;;;;;;;;;;;;;18.14;65.86;98390.00;7379169;19;19935;-78
2023/06/07 07:19:25;;;;;;;;;;;;;;;18.12;65.98;98385.88;7373585;19;20332;-79
2023/06/07 07:21:52;;;;;;;;;;;;;;;18.27;65.72;98385.66;7377410;19;19947;-78
2023/06/07 07:24:18;;;;;;;;;;;;;;;18.32;66.29;98386.69;7377946;19;19925;-79
2023/06/07 07:26:46;;;;;;;;;;;;;;;18.38;65.99;98393.09;7377923;19;20494;-79
2023/06/07 07:29:12;;;;;;;;;;;;;;;18.37;64.05;98394.13;7388097;19;19919;-78
2023/06/07 07:31:39;;;;;;;;;;;;;;;18.54;63.91;98389.19;7397330;19;19933;-79
2023/06/07 07:34:08;;;;;;;;;;;;;;;18.64;64.10;98389.56;7395140;19;19943;-79
2023/06/07 07:36:35;;;;;;;;;;;;;;;18.81;65.84;98385.47;7396374;19;19915;-80
2023/06/07 07:39:08;;;;;;;;;;;;;;;18.90;64.25;98391.44;7384444;19;19982;-79
2023/06/07 07:41:35;;;;;;;;;;;;;;;19.05;64.02;98396.56;7390044;19;19962;-79
2023/06/07 07:44:02;;;;;;;;;;;;;;;19.13;64.41;98384.78;7390509;19;19943;-78
2023/06/07 07:46:28;;;;;;;;;;;;;;;19.16;63.15;98387.06;7395552;19;19942;-79
2023/06/07 07:48:55;;;;;;;;;;;;;;;19.26;62.67;98390.13;7390781;19;19933;-79
2023/06/07 07:51:22;;;;;;;;;;;;;;;19.20;61.69;98393.66;7387045;19;19922;-80
2023/06/07 07:53:52;;;;;;;;;;;;;;;19.21;63.20;98390.75;7381604;19;19941;-79
2023/06/07 07:56:23;;;;;;;;;;;;;;;19.23;62.63;98382.50;7377164;19;20254;-78
2023/06/07 07:58:51;;;;;;;;;;;;;;;19.35;64.01;98380.78;7375592;19;19923;-76
2023/06/07 08:01:18;;;;;;;;;;;;;;;19.29;62.20;98390.50;7379572;19;19915;-79
2023/06/07 08:03:45;;;;;;;;;;;;;;;19.25;61.55;98388.50;7384832;19;20451;-79
2023/06/07 08:06:12;;;;;;;;;;;;;;;19.29;60.92;98384.31;7382100;19;20361;-80
2023/06/07 08:08:39;;;;;;;;;;;;;;;19.42;61.21;98386.16;7377250;19;20716;-79
2023/06/07 08:11:07;;;;;;;;;;;;;;;19.44;60.74;98389.44;7386662;19;19919;-80
2023/06/07 08:13:34;;;;;;;;;;;;;;;19.51;60.37;98385.69;7388935;19;19933;-80
2023/06/07 08:16:00;;;;;;;;;;;;;;;19.66;61.14;98390.81;7387684;19;20009;-78
2023/06/07 08:18:27;;;;;;;;;;;;;;;19.61;59.43;98387.91;7384086;19;19923;-79
2023/06/07 08:20:54;;;;;;;;;;;;;;;19.62;59.43;98386.06;7386558;19;19970;-79
2023/06/07 08:23:21;;;;;;;;;;;;;;;19.69;60.49;98381.50;7386863;19;20328;-78
2023/06/07 08:25:48;;;;;;;;;;;;;;;19.59;60.85;98381.97;7386560;19;20022;-79
2023/06/07 08:28:16;;;;;;;;;;;;;;;19.76;60.48;98376.13;7391242;19;19969;-78
2023/06/07 08:30:43;;;;;;;;;;;;;;;19.76;60.65;98379.63;7390206;19;19923;-79
2023/06/07 08:33:10;;;;;;;;;;;;;;;19.85;60.79;98372.13;7389853;19;19929;-78
2023/06/07 08:35:36;;;;;;;;;;;;;;;19.95;60.18;98376.00;7383708;19;19979;-79
2023/06/07 08:38:03;;;;;;;;;;;;;;;20.09;61.20;98371.38;7387933;19;19921;-79
2023/06/07 08:40:30;;;;;;;;;;;;;;;20.17;59.46;98370.28;7381543;19;19914;-78
2023/06/07 08:42:57;;;;;;;;;;;;;;;20.10;60.35;98373.00;7388504;19;19925;-78
2023/06/07 08:45:23;;;;;;;;;;;;;;;20.23;60.18;98371.28;7392177;19;19962;-77
2023/06/07 08:47:50;;;;;;;;;;;;;;;20.40;59.90;98375.06;7390059;19;19922;-79
2023/06/07 08:50:17;;;;;;;;;;;;;;;20.55;58.98;98386.34;7384175;19;19914;-79
2023/06/07 08:52:45;;;;;;;;;;;;;;;20.66;57.04;98374.03;7386636;19;19915;-80
2023/06/07 08:55:12;;;;;;;;;;;;;;;20.73;56.94;98369.44;7389102;19;19922;-77
2023/06/07 08:57:39;;;;;;;;;;;;;;;20.84;57.51;98375.94;7380476;19;19918;-79
2023/06/07 09:00:07;;;;;;;;;;;;;;;20.87;55.88;98372.81;7379218;19;19943;-78
2023/06/07 09:02:34;;;;;;;;;;;;;;;20.87;56.71;98377.38;7386371;19;20249;-77
2023/06/07 09:05:01;;;;;;;;;;;;;;;21.02;56.98;98373.28;7387432;19;19941;-78
2023/06/07 09:07:28;;;;;;;;;;;;;;;20.65;57.17;98387.72;7385717;19;20717;-78
2023/06/07 09:09:55;;;;;;;;;;;;;;;20.67;56.38;98381.09;7388667;19;19931;-78
2023/06/07 09:12:22;;;;;;;;;;;;;;;20.62;57.43;98375.53;7384843;19;19915;-78
2023/06/07 09:14:50;;;;;;;;;;;;;;;20.55;56.95;98380.97;7382210;19;19922;-78
2023/06/07 09:17:18;;;;;;;;;;;;;;;20.67;57.04;98378.41;7384438;19;19939;-79
2023/06/07 09:19:45;;;;;;;;;;;;;;;20.54;56.27;98390.09;7382896;19;19990;-82
2023/06/07 09:22:14;;;;;;;;;;;;;;;20.78;54.14;98379.53;7389479;19;20464;-82
2023/06/07 09:24:41;;;;;;;;;;;;;;;20.89;52.88;98377.97;7386290;19;19916;-78
2023/06/07 09:27:08;;;;;;;;;;;;;;;20.77;53.47;98389.47;7388352;19;19919;-79
2023/06/07 09:29:38;;;;;;;;;;;;;;;20.84;54.15;98384.03;7382988;19;19915;-77
2023/06/07 09:32:21;;;;;;;;;;;;;;;20.88;53.51;98368.25;7383846;19;19923;-79
2023/06/07 09:34:48;;;;;;;;;;;;;;;20.82;54.14;98375.34;7388330;19;19910;-79
2023/06/07 09:37:20;;;;;;;;;;;;;;;20.97;53.26;98375.00;7390218;19;19958;-80
2023/06/07 09:39:50;;;;;;;;;;;;;;;20.99;52.82;98378.31;7385794;19;19920;-78
2023/06/07 09:42:17;;;;;;;;;;;;;;;20.88;52.15;98373.63;7388042;19;19923;-80
2023/06/07 09:44:44;;;;;;;;;;;;;;;20.74;52.83;98383.69;7387685;19;19919;-78
2023/06/07 09:47:21;;;;;;;;;;;;;;;20.81;54.86;98368.34;7386979;19;19942;-78
2023/06/07 09:49:48;;;;;;;;;;;;;;;21.03;54.29;98361.47;7384971;19;19934;-78
2023/06/07 09:52:15;;;;;;;;;;;;;;;21.35;52.89;98368.56;7388995;19;19918;-77
2023/06/07 09:54:42;;;;;;;;;;;;;;;21.56;51.72;98361.94;7386292;19;19919;-79
2023/06/07 09:57:10;;;;;;;;;;;;;;;21.91;50.81;98359.41;7388147;19;20529;-78
2023/06/07 09:59:37;;;;;;;;;;;;;;;22.52;49.10;98366.34;7389815;19;19946;-77
2023/06/07 10:02:22;;;;;;;;;;;;;;;22.76;50.98;98350.16;7385004;19;20345;-79
2023/06/07 10:04:48;;;;;;;;;;;;;;;23.03;48.91;98355.91;7383291;19;19978;-78
2023/06/07 10:07:16;;;;;;;;;;;;;;;22.67;49.85;98354.25;7386486;19;19919;-78
2023/06/07 10:09:52;;;;;;;;;;;;;;;22.78;49.60;98361.56;7384829;19;20235;-79
2023/06/07 10:12:21;;;;;;;;;;;;;;;22.24;49.38;98356.22;7381910;19;19922;-83
2023/06/07 10:14:48;;;;;;;;;;;;;;;22.13;50.19;98356.97;7388074;19;19994;-79
2023/06/07 10:17:15;;;;;;;;;;;;;;;22.14;50.37;98355.91;7383451;19;19919;-79
2023/06/07 10:19:48;;;;;;;;;;;;;;;22.19;50.93;98345.31;7378332;19;19922;-80
2023/06/07 10:22:16;;;;;;;;;;;;;;;22.52;50.08;98352.03;7382670;19;19943;-78
2023/06/07 10:24:46;;;;;;;;;;;;;;;22.90;49.24;98343.47;7383206;19;19911;-79
2023/06/07 10:27:13;;;;;;;;;;;;;;;23.39;47.45;98348.59;7383238;19;19919;-77
2023/06/07 10:29:59;;;;;;;;;;;;;;;23.76;46.77;98345.53;7378863;19;19926;-79
2023/06/07 10:32:29;;;;;;;;;;;;;;;24.30;43.90;98345.94;7382964;19;19919;-76
2023/06/07 10:34:56;;;;;;;;;;;;;;;24.05;45.47;98343.63;7380318;19;19939;-78
2023/06/07 10:37:23;;;;;;;;;;;;;;;23.69;46.36;98345.66;7373539;19;19922;-78
2023/06/07 10:39:49;;;;;;;;;;;;;;;23.50;47.71;98341.50;7376323;19;19937;-78
2023/06/07 10:42:16;;;;;;;;;;;;;;;23.39;47.83;98341.31;7381375;19;19918;-78
2023/06/07 10:44:43;;;;;;;;;;;;;;;23.37;47.30;98342.59;7379965;19;19929;-80
2023/06/07 10:47:22;;;;;;;;;;;;;;;23.28;47.39;98338.66;7381993;19;19915;-79
2023/06/07 10:49:49;;;;;;;;;;;;;;;22.99;47.31;98339.41;7380659;19;19929;-80
2023/06/07 10:52:16;;;;;;;;;;;;;;;22.77;47.20;98330.22;7386265;19;19933;-79
2023/06/07 10:54:45;;;;;;;;;;;;;;;22.69;48.87;98325.19;7372732;19;19919;-79
2023/06/07 10:57:12;;;;;;;;;;;;;;;22.32;49.72;98326.22;7378298;19;19954;-78
2023/06/07 10:59:39;;;;;;;;;;;;;;;22.23;48.79;98332.22;7380081;19;19919;-79
2023/06/07 11:02:23;;;;;;;;;;;;;;;22.54;49.44;98323.81;7382396;19;20771;-79
2023/06/07 11:04:51;;;;;;;;;;;;;;;22.49;48.76;98331.78;7383030;19;19911;-81
2023/06/07 11:07:18;;;;;;;;;;;;;;;22.49;48.80;98328.25;7387043;19;19926;-79
2023/06/07 11:09:46;;;;;;;;;;;;;;;22.70;45.87;98324.97;7378071;19;19931;-78
2023/06/07 11:12:32;;;;;;;;;;;;;;;23.00;46.51;98332.13;7377796;19;19925;-79
2023/06/07 11:15:20;;;;;;;;;;;;;;;23.12;48.67;98321.31;7382247;19;19919;-82
2023/06/07 11:17:57;;;;;;;;;;;;;;;23.10;48.48;98326.94;7381360;19;19961;-79
2023/06/07 11:20:38;;;;;;;;;;;;;;;23.34;49.73;98326.88;7378395;19;20395;-81
2023/06/07 11:23:21;;;;;;;;;;;;;;;23.38;46.81;98322.63;7385679;19;20290;-80
2023/06/07 11:26:11;;;;;;;;;;;;;;;23.27;46.11;98326.19;7381668;19;19919;-81
2023/06/07 11:28:39;;;;;;;;;;;;;;;23.15;47.63;98324.34;7377091;19;19929;-79
2023/06/07 11:31:10;;;;;;;;;;;;;;;23.09;47.61;98324.47;7378994;19;21185;-78
2023/06/07 11:33:37;;;;;;;;;;;;;;;23.04;48.16;98327.91;7375627;19;19918;-77
2023/06/07 11:36:09;;;;;;;;;;;;;;;23.23;48.29;98315.88;7375659;19;19922;-77
2023/06/07 11:38:37;;;;;;;;;;;;;;;23.34;47.09;98316.09;7373844;19;20356;-77
2023/06/07 11:41:05;;;;;;;;;;;;;;;23.48;47.01;98312.03;7379541;19;20908;-77
2023/06/07 11:43:31;;;;;;;;;;;;;;;23.60;46.63;98312.81;7379303;19;19926;-80
2023/06/07 11:45:58;;;;;;;;;;;;;;;23.37;46.71;98316.41;7383569;19;19922;-78
2023/06/07 11:48:26;;;;;;;;;;;;;;;23.27;47.16;98315.41;7393270;19;19938;-79
2023/06/07 11:50:53;;;;;;;;;;;;;;;23.27;46.86;98312.69;7395749;19;20353;-78
2023/06/07 11:53:21;;;;;;;;;;;;;;;23.13;46.62;98306.75;7398669;19;19926;-78
2023/06/07 11:55:48;;;;;;;;;;;;;;;23.22;47.98;98297.22;7393282;19;19925;-77
2023/06/07 11:58:14;;;;;;;;;;;;;;;22.79;47.39;98304.66;7390375;19;19926;-79
2023/06/07 12:00:42;;;;;;;;;;;;;;;22.86;49.47;98292.94;7388144;19;19987;-76
2023/06/07 12:03:10;;;;;;;;;;;;;;;22.93;46.27;98294.47;7393134;19;20188;-79
2023/06/07 12:05:37;;;;;;;;;;;;;;;22.72;46.28;98298.59;7395985;19;19919;-80
2023/06/07 12:08:05;;;;;;;;;;;;;;;22.77;47.52;98300.56;7397192;19;19923;-82
2023/06/07 12:10:33;;;;;;;;;;;;;;;22.88;47.00;98290.81;7395498;19;19919;-78
2023/06/07 12:13:06;;;;;;;;;;;;;;;22.91;46.70;98291.19;7396162;19;19917;-77
2023/06/07 12:15:34;;;;;;;;;;;;;;;23.14;46.33;98289.50;7392963;19;19929;-78
2023/06/07 12:18:02;;;;;;;;;;;;;;;23.49;45.63;98291.28;7392330;19;19919;-80
2023/06/07 12:20:29;;;;;;;;;;;;;;;23.64;45.13;98289.69;7390914;19;19943;-78
2023/06/07 12:23:03;;;;;;;;;;;;;;;23.80;45.02;98284.56;7396943;19;19926;-78
2023/06/07 12:25:29;;;;;;;;;;;;;;;23.77;44.14;98282.34;7392634;19;19915;-76
2023/06/07 12:28:05;;;;;;;;;;;;;;;23.78;44.58;98278.59;7391260;19;19932;-77
2023/06/07 12:30:38;;;;;;;;;;;;;;;23.69;44.38;98275.41;7392945;19;19922;-77
2023/06/07 12:33:11;;;;;;;;;;;;;;;23.64;45.77;98270.78;7392409;19;19939;-78
2023/06/07 12:35:39;;;;;;;;;;;;;;;23.57;46.08;98266.59;7388033;19;19911;-77
2023/06/07 12:38:05;;;;;;;;;;;;;;;23.57;46.48;98272.78;7392811;19;20439;-78
2023/06/07 12:40:32;;;;;;;;;;;;;;;23.57;44.96;98267.41;7394379;19;20262;-77
2023/06/07 12:43:00;;;;;;;;;;;;;;;23.67;45.36;98261.34;7392236;19;20257;-79
2023/06/07 12:45:27;;;;;;;;;;;;;;;23.58;45.77;98252.81;7393388;19;19923;-78
2023/06/07 12:47:54;;;;;;;;;;;;;;;23.47;44.49;98239.38;7393854;19;19922;-77
2023/06/07 12:50:21;;;;;;;;;;;;;;;23.54;45.40;98243.59;7389836;19;19930;-77
2023/06/07 12:52:48;;;;;;;;;;;;;;;23.59;44.80;98245.53;7388718;19;19929;-79
2023/06/07 12:55:15;;;;;;;;;;;;;;;23.66;42.87;98238.91;7393349;19;19911;-78
2023/06/07 12:57:42;;;;;;;;;;;;;;;23.78;43.09;98241.59;7382977;19;19922;-78